sensor_id;sensor_type;location;lat;lon;timestamp;pressure;altitude;pressure_sealevel;temperature;humidity
58243;BME280;50118;53.232;8.252;2024-01-11T00:00:29;103329.44;;;-7.37;100.00
58243;BME280;50118;53.232;8.252;2024-01-11T00:02:54;103332.16;;;-7.33;100.00
58243;BME280;50118;53.232;8.252;2024-01-11T00:05:20;103335.63;;;-7.30;100.00
58243;BME280;50118;53.232;8.252;2024-01-11T00:07:47;103341.31;;;-7.48;100.00
58243;BME280;50118;53.232;8.252;2024-01-11T00:10:13;103336.31;;;-7.39;100.00
58243;BME280;50118;53.232;8.252;2024-01-11T00:12:39;103331.13;;;-7.39;100.00
58243;BME280;50118;53.232;8.252;2024-01-11T00:15:04;103322.78;;;-7.26;100.00
58243;BME280;50118;53.232;8.252;2024-01-11T00:17:30;103321.00;;;-7.30;100.00
58243;BME280;50118;53.232;8.252;2024-01-11T00:19:56;103317.44;;;-7.35;100.00
58243;BME280;50118;53.232;8.252;2024-01-11T00:22:21;103320.06;;;-7.34;100.00
58243;BME280;50118;53.232;8.252;2024-01-11T00:24:46;103320.91;;;-7.33;100.00
58243;BME280;50118;53.232;8.252;2024-01-11T00:27:12;103326.16;;;-7.30;100.00
58243;BME280;50118;53.232;8.252;2024-01-11T00:29:38;103329.72;;;-7.25;100.00
58243;BME280;50118;53.232;8.252;2024-01-11T00:32:03;103316.63;;;-7.31;100.00
58243;BME280;50118;53.232;8.252;2024-01-11T00:34:29;103319.97;;;-7.37;100.00
58243;BME280;50118;53.232;8.252;2024-01-11T00:36:54;103316.75;;;-7.26;100.00
58243;BME280;50118;53.232;8.252;2024-01-11T00:39:20;103315.81;;;-7.30;100.00
58243;BME280;50118;53.232;8.252;2024-01-11T00:41:45;103319.28;;;-7.28;100.00
58243;BME280;50118;53.232;8.252;2024-01-11T00:44:11;103322.72;;;-7.29;100.00
58243;BME280;50118;53.232;8.252;2024-01-11T00:46:36;103309.78;;;-7.29;100.00
58243;BME280;50118;53.232;8.252;2024-01-11T00:49:03;103309.59;;;-7.38;100.00
58243;BME280;50118;53.232;8.252;2024-01-11T00:51:29;103303.53;;;-7.39;100.00
58243;BME280;50118;53.232;8.252;2024-01-11T00:53:54;103296.97;;;-7.23;100.00
58243;BME280;50118;53.232;8.252;2024-01-11T00:56:19;103308.06;;;-7.28;100.00
58243;BME280;50118;53.232;8.252;2024-01-11T00:58:45;103300.28;;;-7.30;100.00
58243;BME280;50118;53.232;8.252;2024-01-11T01:01:11;103290.00;;;-7.24;100.00
58243;BME280;50118;53.232;8.252;2024-01-11T01:03:38;103293.47;;;-7.25;100.00
58243;BME280;50118;53.232;8.252;2024-01-11T01:06:03;103293.16;;;-7.40;100.00
58243;BME280;50118;53.232;8.252;2024-01-11T01:08:30;103281.22;;;-7.32;100.00
58243;BME280;50118;53.232;8.252;2024-01-11T01:10:55;103276.09;;;-7.29;100.00
58243;BME280;50118;53.232;8.252;2024-01-11T01:13:21;103270.06;;;-7.29;100.00
58243;BME280;50118;53.232;8.252;2024-01-11T01:15:46;103278.53;;;-7.37;100.00
58243;BME280;50118;53.232;8.252;2024-01-11T01:18:12;103276.38;;;-7.17;100.00
58243;BME280;50118;53.232;8.252;2024-01-11T01:20:37;103281.22;;;-7.32;100.00
58243;BME280;50118;53.232;8.252;2024-01-11T01:23:03;103276.00;;;-7.35;100.00
58243;BME280;50118;53.232;8.252;2024-01-11T01:25:28;103280.13;;;-7.43;100.00
58243;BME280;50118;53.232;8.252;2024-01-11T01:27:55;103272.38;;;-7.43;100.00
58243;BME280;50118;53.232;8.252;2024-01-11T01:30:20;103277.47;;;-7.46;100.00
58243;BME280;50118;53.232;8.252;2024-01-11T01:32:46;103278.16;;;-7.55;100.00
58243;BME280;50118;53.232;8.252;2024-01-11T01:35:11;103278.16;;;-7.55;100.00
58243;BME280;50118;53.232;8.252;2024-01-11T01:37:36;103284.28;;;-7.52;100.00
58243;BME280;50118;53.232;8.252;2024-01-11T01:40:02;103276.78;;;-7.38;100.00
58243;BME280;50118;53.232;8.252;2024-01-11T01:42:28;103262.25;;;-7.31;100.00
58243;BME280;50118;53.232;8.252;2024-01-11T01:44:53;103256.25;;;-7.30;100.00
58243;BME280;50118;53.232;8.252;2024-01-11T01:47:19;103248.56;;;-7.24;100.00
58243;BME280;50118;53.232;8.252;2024-01-11T01:49:44;103239.91;;;-7.26;100.00
58243;BME280;50118;53.232;8.252;2024-01-11T01:52:13;103263.03;;;-7.35;100.00
58243;BME280;50118;53.232;8.252;2024-01-11T01:54:39;103281.84;;;-7.42;100.00
58243;BME280;50118;53.232;8.252;2024-01-11T01:57:06;103276.72;;;-7.41;100.00
58243;BME280;50118;53.232;8.252;2024-01-11T01:59:33;103259.56;;;-7.36;100.00
58243;BME280;50118;53.232;8.252;2024-01-11T02:01:58;103260.44;;;-7.35;100.00
58243;BME280;50118;53.232;8.252;2024-01-11T02:04:26;103256.13;;;-7.35;100.00
58243;BME280;50118;53.232;8.252;2024-01-11T02:06:53;103263.81;;;-7.39;100.00
58243;BME280;50118;53.232;8.252;2024-01-11T02:09:20;103264.66;;;-7.40;100.00
58243;BME280;50118;53.232;8.252;2024-01-11T02:11:46;103272.38;;;-7.43;100.00
58243;BME280;50118;53.232;8.252;2024-01-11T02:14:11;103278.34;;;-7.46;100.00
58243;BME280;50118;53.232;8.252;2024-01-11T02:16:37;103272.22;;;-7.49;100.00
58243;BME280;50118;53.232;8.252;2024-01-11T02:19:04;103270.66;;;-7.41;100.00
58243;BME280;50118;53.232;8.252;2024-01-11T02:21:32;103276.63;;;-7.45;100.00
58243;BME280;50118;53.232;8.252;2024-01-11T02:24:03;103276.47;;;-7.53;100.00
58243;BME280;50118;53.232;8.252;2024-01-11T02:26:29;103270.50;;;-7.51;100.00
58243;BME280;50118;53.232;8.252;2024-01-11T02:28:54;103277.28;;;-7.56;100.00
58243;BME280;50118;53.232;8.252;2024-01-11T02:31:20;103275.69;;;-7.51;100.00
58243;BME280;50118;53.232;8.252;2024-01-11T02:33:45;103284.34;;;-7.48;100.00
58243;BME280;50118;53.232;8.252;2024-01-11T02:36:11;103282.31;;;-7.62;100.00
58243;BME280;50118;53.232;8.252;2024-01-11T02:38:36;103278.91;;;-7.61;100.00
58243;BME280;50118;53.232;8.252;2024-01-11T02:41:03;103291.00;;;-7.60;100.00
58243;BME280;50118;53.232;8.252;2024-01-11T02:43:30;103274.63;;;-7.59;100.00
58243;BME280;50118;53.232;8.252;2024-01-11T02:45:56;103272.22;;;-7.49;100.00
58243;BME280;50118;53.232;8.252;2024-01-11T02:48:27;103261.88;;;-7.49;100.00
58243;BME280;50118;53.232;8.252;2024-01-11T02:50:53;103276.38;;;-7.56;100.00
58243;BME280;50118;53.232;8.252;2024-01-11T02:53:19;103268.56;;;-7.61;100.00
58243;BME280;50118;53.232;8.252;2024-01-11T02:55:44;103265.94;;;-7.62;100.00
58243;BME280;50118;53.232;8.252;2024-01-11T02:58:10;103266.00;;;-7.58;100.00
58243;BME280;50118;53.232;8.252;2024-01-11T03:00:35;103265.00;;;-7.66;100.00
58243;BME280;50118;53.232;8.252;2024-01-11T03:03:00;103269.31;;;-7.65;100.00
58243;BME280;50118;53.232;8.252;2024-01-11T03:05:26;103289.59;;;-7.83;100.00
58243;BME280;50118;53.232;8.252;2024-01-11T03:07:52;103304.22;;;-7.85;100.00
58243;BME280;50118;53.232;8.252;2024-01-11T03:10:32;103288.91;;;-7.76;100.00
58243;BME280;50118;53.232;8.252;2024-01-11T03:13:14;103310.50;;;-7.76;100.00
58243;BME280;50118;53.232;8.252;2024-01-11T03:15:40;103315.50;;;-7.82;100.00
58243;BME280;50118;53.232;8.252;2024-01-11T03:21:17;103274.22;;;-7.77;100.00
58243;BME280;50118;53.232;8.252;2024-01-11T03:23:43;103273.72;;;-7.61;100.00
58243;BME280;50118;53.232;8.252;2024-01-11T03:26:18;103266.88;;;-7.59;100.00
58243;BME280;50118;53.232;8.252;2024-01-11T03:28:43;103267.56;;;-7.66;100.00
58243;BME280;50118;53.232;8.252;2024-01-11T03:31:09;103265.97;;;-7.61;100.00
58243;BME280;50118;53.232;8.252;2024-01-11T03:33:35;103271.22;;;-7.56;100.00
58243;BME280;50118;53.232;8.252;2024-01-11T03:36:07;103265.50;;;-7.41;100.00
58243;BME280;50118;53.232;8.252;2024-01-11T03:38:32;103265.34;;;-7.49;100.00
58243;BME280;50118;53.232;8.252;2024-01-11T03:40:58;103267.28;;;-7.37;100.00
58243;BME280;50118;53.232;8.252;2024-01-11T03:43:23;103257.72;;;-7.41;100.00
58243;BME280;50118;53.232;8.252;2024-01-11T03:45:49;103254.38;;;-7.36;100.00
58243;BME280;50118;53.232;8.252;2024-01-11T03:48:14;103252.44;;;-7.46;100.00
58243;BME280;50118;53.232;8.252;2024-01-11T03:50:39;103244.84;;;-7.38;100.00
58243;BME280;50118;53.232;8.252;2024-01-11T03:53:05;103255.50;;;-7.23;100.00
58243;BME280;50118;53.232;8.252;2024-01-11T03:55:30;103248.56;;;-7.24;100.00
58243;BME280;50118;53.232;8.252;2024-01-11T03:57:56;103247.88;;;-7.15;100.00
58243;BME280;50118;53.232;8.252;2024-01-11T04:00:21;103254.88;;;-7.11;100.00
58243;BME280;50118;53.232;8.252;2024-01-11T04:02:46;103256.56;;;-7.13;100.00
58243;BME280;50118;53.232;8.252;2024-01-11T04:05:12;103259.34;;;-7.02;100.00
58243;BME280;50118;53.232;8.252;2024-01-11T04:07:37;103247.34;;;-6.99;100.00
58243;BME280;50118;53.232;8.252;2024-01-11T04:10:03;103258.34;;;-7.10;100.00
58243;BME280;50118;53.232;8.252;2024-01-11T04:12:29;103274.00;;;-7.04;100.00
58243;BME280;50118;53.232;8.252;2024-01-11T04:14:54;103282.88;;;-6.91;100.00
58243;BME280;50118;53.232;8.252;2024-01-11T04:17:20;103282.16;;;-6.83;100.00
58243;BME280;50118;53.232;8.252;2024-01-11T04:19:45;103290.63;;;-6.93;100.00
58243;BME280;50118;53.232;8.252;2024-01-11T04:22:10;103313.03;;;-6.95;100.00
58243;BME280;50118;53.232;8.252;2024-01-11T04:24:36;103307.88;;;-6.95;100.00
58243;BME280;50118;53.232;8.252;2024-01-11T04:27:01;103294.94;;;-6.93;100.00
58243;BME280;50118;53.232;8.252;2024-01-11T04:29:27;103299.25;;;-6.94;100.00
58243;BME280;50118;53.232;8.252;2024-01-11T04:31:52;103294.22;;;-6.85;100.00
58243;BME280;50118;53.232;8.252;2024-01-11T04:34:18;103292.59;;;-6.80;100.00
58243;BME280;50118;53.232;8.252;2024-01-11T04:36:43;103306.66;;;-6.68;100.00
58243;BME280;50118;53.232;8.252;2024-01-11T04:39:09;103298.75;;;-6.74;100.00
58243;BME280;50118;53.232;8.252;2024-01-11T04:41:35;103312.63;;;-6.71;100.00
58243;BME280;50118;53.232;8.252;2024-01-11T04:44:02;103314.63;;;-6.56;100.00
58243;BME280;50118;53.232;8.252;2024-01-11T04:46:27;103305.00;;;-6.63;100.00
58243;BME280;50118;53.232;8.252;2024-01-11T04:48:53;103302.53;;;-6.55;100.00
58243;BME280;50118;53.232;8.252;2024-01-11T04:51:19;103306.91;;;-6.53;100.00
58243;BME280;50118;53.232;8.252;2024-01-11T04:53:45;103293.09;;;-6.53;100.00
58243;BME280;50118;53.232;8.252;2024-01-11T04:56:12;103306.09;;;-6.50;100.00
58243;BME280;50118;53.232;8.252;2024-01-11T04:58:40;103294.06;;;-6.45;100.00
58243;BME280;50118;53.232;8.252;2024-01-11T05:01:06;103278.66;;;-6.38;100.00
58243;BME280;50118;53.232;8.252;2024-01-11T05:03:32;103284.75;;;-6.35;100.00
58243;BME280;50118;53.232;8.252;2024-01-11T05:05:58;103283.03;;;-6.33;100.00
58243;BME280;50118;53.232;8.252;2024-01-11T05:08:28;103272.63;;;-6.36;100.00
58243;BME280;50118;53.232;8.252;2024-01-11T05:10:53;103265.81;;;-6.28;100.00
58243;BME280;50118;53.232;8.252;2024-01-11T05:13:19;103255.44;;;-6.28;100.00
58243;BME280;50118;53.232;8.252;2024-01-11T05:15:45;103238.09;;;-6.32;100.00
58243;BME280;50118;53.232;8.252;2024-01-11T05:18:11;103244.19;;;-6.29;100.00
58243;BME280;50118;53.232;8.252;2024-01-11T05:20:37;103237.34;;;-6.25;100.00
58243;BME280;50118;53.232;8.252;2024-01-11T05:23:03;103224.41;;;-6.22;100.00
58243;BME280;50118;53.232;8.252;2024-01-11T05:25:29;103221.28;;;-5.99;100.00
58243;BME280;50118;53.232;8.252;2024-01-11T05:28:01;103231.59;;;-6.06;100.00
58243;BME280;50118;53.232;8.252;2024-01-11T05:30:27;103251.47;;;-6.05;100.00
58243;BME280;50118;53.232;8.252;2024-01-11T05:32:53;103236.84;;;-6.03;100.00
58243;BME280;50118;53.232;8.252;2024-01-11T05:35:19;103235.03;;;-6.07;100.00
58243;BME280;50118;53.232;8.252;2024-01-11T05:37:45;103234.44;;;-5.87;100.00
58243;BME280;50118;53.232;8.252;2024-01-11T05:40:10;103233.59;;;-5.83;100.00
58243;BME280;50118;53.232;8.252;2024-01-11T05:42:36;103224.78;;;-5.97;100.00
58243;BME280;50118;53.232;8.252;2024-01-11T05:45:04;103217.13;;;-5.87;100.00
58243;BME280;50118;53.232;8.252;2024-01-11T05:47:29;103205.88;;;-5.87;100.00
58243;BME280;50118;53.232;8.252;2024-01-11T05:49:55;103198.00;;;-5.92;100.00
58243;BME280;50118;53.232;8.252;2024-01-11T05:52:20;103194.53;;;-5.91;100.00
58243;BME280;50118;53.232;8.252;2024-01-11T05:54:46;103220.56;;;-5.86;100.00
58243;BME280;50118;53.232;8.252;2024-01-11T05:57:12;103220.75;;;-5.75;100.00
58243;BME280;50118;53.232;8.252;2024-01-11T06:00:03;103227.69;;;-5.73;100.00
58243;BME280;50118;53.232;8.252;2024-01-11T06:02:29;103214.69;;;-5.73;100.00
58243;BME280;50118;53.232;8.252;2024-01-11T06:04:57;103216.50;;;-5.66;100.00
58243;BME280;50118;53.232;8.252;2024-01-11T06:07:22;103208.03;;;-5.52;100.00
58243;BME280;50118;53.232;8.252;2024-01-11T06:09:48;103209.66;;;-5.60;100.00
58243;BME280;50118;53.232;8.252;2024-01-11T06:12:14;103206.25;;;-5.58;100.00
58243;BME280;50118;53.232;8.252;2024-01-11T06:14:39;103195.88;;;-5.55;100.00
58243;BME280;50118;53.232;8.252;2024-01-11T06:17:05;103202.78;;;-5.55;100.00
58243;BME280;50118;53.232;8.252;2024-01-11T06:19:30;103195.03;;;-5.52;100.00
58243;BME280;50118;53.232;8.252;2024-01-11T06:21:56;103201.25;;;-5.41;100.00
58243;BME280;50118;53.232;8.252;2024-01-11T06:24:21;103204.81;;;-5.33;100.00
58243;BME280;50118;53.232;8.252;2024-01-11T06:26:47;103219.53;;;-5.30;100.00
58243;BME280;50118;53.232;8.252;2024-01-11T06:29:12;103231.63;;;-5.34;100.00
58243;BME280;50118;53.232;8.252;2024-01-11T06:31:38;103232.50;;;-5.32;100.00
58243;BME280;50118;53.232;8.252;2024-01-11T06:34:03;103226.44;;;-5.32;100.00
58243;BME280;50118;53.232;8.252;2024-01-11T06:36:30;103236.03;;;-5.27;100.00
58243;BME280;50118;53.232;8.252;2024-01-11T06:38:55;103232.59;;;-5.26;100.00
58243;BME280;50118;53.232;8.252;2024-01-11T06:41:21;103218.78;;;-5.21;100.00
58243;BME280;50118;53.232;8.252;2024-01-11T06:43:46;103224.09;;;-5.12;100.00
58243;BME280;50118;53.232;8.252;2024-01-11T06:46:12;103228.38;;;-5.13;100.00
58243;BME280;50118;53.232;8.252;2024-01-11T06:48:37;103224.09;;;-5.12;100.00
58243;BME280;50118;53.232;8.252;2024-01-11T06:51:03;103216.34;;;-5.06;100.00
58243;BME280;50118;53.232;8.252;2024-01-11T06:53:28;103211.09;;;-5.12;100.00
58243;BME280;50118;53.232;8.252;2024-01-11T06:55:54;103202.47;;;-5.07;100.00
58243;BME280;50118;53.232;8.252;2024-01-11T06:58:23;103199.03;;;-5.05;100.00
58243;BME280;50118;53.232;8.252;2024-01-11T07:00:51;103197.31;;;-5.03;100.00
58243;BME280;50118;53.232;8.252;2024-01-11T07:03:17;103206.03;;;-4.98;100.00
58243;BME280;50118;53.232;8.252;2024-01-11T07:05:43;103207.72;;;-5.02;100.00
58243;BME280;50118;53.232;8.252;2024-01-11T07:08:08;103205.16;;;-4.97;100.00
58243;BME280;50118;53.232;8.252;2024-01-11T07:10:33;103208.75;;;-4.84;100.00
58243;BME280;50118;53.232;8.252;2024-01-11T07:12:59;103207.88;;;-4.86;100.00
58243;BME280;50118;53.232;8.252;2024-01-11T07:15:24;103203.59;;;-4.81;100.00
58243;BME280;50118;53.232;8.252;2024-01-11T07:17:50;103204.47;;;-4.79;100.00
58243;BME280;50118;53.232;8.252;2024-01-11T07:20:15;103196.69;;;-4.78;100.00
58243;BME280;50118;53.232;8.252;2024-01-11T07:22:42;103192.44;;;-4.63;100.00
58243;BME280;50118;53.232;8.252;2024-01-11T07:25:08;103195.09;;;-4.59;100.00
58243;BME280;50118;53.232;8.252;2024-01-11T07:27:33;103203.75;;;-4.63;100.00
58243;BME280;50118;53.232;8.252;2024-01-11T07:30:00;103208.91;;;-4.66;100.00
58243;BME280;50118;53.232;8.252;2024-01-11T07:32:27;103205.47;;;-4.62;100.00
58243;BME280;50118;53.232;8.252;2024-01-11T07:34:53;103207.16;;;-4.67;100.00
58243;BME280;50118;53.232;8.252;2024-01-11T07:37:18;103199.38;;;-4.65;100.00
58243;BME280;50118;53.232;8.252;2024-01-11T07:39:43;103186.38;;;-4.67;100.00
58243;BME280;50118;53.232;8.252;2024-01-11T07:42:09;103196.81;;;-4.61;100.00
58243;BME280;50118;53.232;8.252;2024-01-11T07:44:34;103188.16;;;-4.60;100.00
58243;BME280;50118;53.232;8.252;2024-01-11T07:47:00;103199.44;;;-4.59;100.00
58243;BME280;50118;53.232;8.252;2024-01-11T07:49:25;103205.63;;;-4.45;100.00
58243;BME280;50118;53.232;8.252;2024-01-11T07:51:51;103214.31;;;-4.41;100.00
58243;BME280;50118;53.232;8.252;2024-01-11T07:54:16;103219.53;;;-4.38;100.00
58243;BME280;50118;53.232;8.252;2024-01-11T07:56:42;103218.72;;;-4.29;100.00
58243;BME280;50118;53.232;8.252;2024-01-11T07:59:07;103233.53;;;-4.24;100.00
58243;BME280;50118;53.232;8.252;2024-01-11T08:01:33;103224.88;;;-4.20;100.00
58243;BME280;50118;53.232;8.252;2024-01-11T08:04:00;103224.94;;;-4.14;100.00
58243;BME280;50118;53.232;8.252;2024-01-11T08:06:28;103228.38;;;-4.15;100.00
58243;BME280;50118;53.232;8.252;2024-01-11T08:08:53;103233.59;;;-4.15;100.00
58243;BME280;50118;53.232;8.252;2024-01-11T08:11:19;103241.41;;;-4.15;100.00
58243;BME280;50118;53.232;8.252;2024-01-11T08:13:44;103255.31;;;-4.11;100.00
58243;BME280;50118;53.232;8.252;2024-01-11T08:16:17;103236.25;;;-4.04;100.00
58243;BME280;50118;53.232;8.252;2024-01-11T08:18:43;103229.34;;;-4.03;100.00
58243;BME280;50118;53.232;8.252;2024-01-11T08:21:09;103236.25;;;-4.04;100.00
58243;BME280;50118;53.232;8.252;2024-01-11T08:23:37;103240.66;;;-3.95;100.00
58243;BME280;50118;53.232;8.252;2024-01-11T08:26:06;103240.66;;;-3.95;100.00
58243;BME280;50118;53.232;8.252;2024-01-11T08:28:31;103240.66;;;-3.95;100.00
58243;BME280;50118;53.232;8.252;2024-01-11T08:30:57;103222.53;;;-3.81;100.00
58243;BME280;50118;53.232;8.252;2024-01-11T08:33:22;103228.66;;;-3.68;100.00
58243;BME280;50118;53.232;8.252;2024-01-11T08:35:48;103220.00;;;-3.64;100.00
58243;BME280;50118;53.232;8.252;2024-01-11T08:38:13;103218.28;;;-3.56;100.00
58243;BME280;50118;53.232;8.252;2024-01-11T08:40:39;103226.09;;;-3.58;100.00
58243;BME280;50118;53.232;8.252;2024-01-11T08:43:04;103214.84;;;-3.52;100.00
58243;BME280;50118;53.232;8.252;2024-01-11T08:45:31;103210.50;;;-3.51;100.00
58243;BME280;50118;53.232;8.252;2024-01-11T08:47:56;103213.97;;;-3.49;100.00
58243;BME280;50118;53.232;8.252;2024-01-11T08:50:22;103221.81;;;-3.45;100.00
58243;BME280;50118;53.232;8.252;2024-01-11T08:52:48;103229.59;;;-3.52;100.00
58243;BME280;50118;53.232;8.252;2024-01-11T08:55:13;103222.72;;;-3.38;100.00
58243;BME280;50118;53.232;8.252;2024-01-11T08:57:39;103221.00;;;-3.28;100.00
58243;BME280;50118;53.232;8.252;2024-01-11T09:00:05;103226.22;;;-3.27;100.00
58243;BME280;50118;53.232;8.252;2024-01-11T09:02:33;103217.50;;;-3.30;100.00
58243;BME280;50118;53.232;8.252;2024-01-11T09:05:00;103220.19;;;-3.15;100.00
58243;BME280;50118;53.232;8.252;2024-01-11T09:07:26;103223.66;;;-3.07;100.00
58243;BME280;50118;53.232;8.252;2024-01-11T09:09:51;103229.75;;;-3.11;100.00
58243;BME280;50118;53.232;8.252;2024-01-11T09:12:19;103221.94;;;-3.05;100.00
58243;BME280;50118;53.232;8.252;2024-01-11T09:14:45;103224.56;;;-2.92;100.00
58243;BME280;50118;53.232;8.252;2024-01-11T09:17:10;103221.97;;;-2.83;100.00
58243;BME280;50118;53.232;8.252;2024-01-11T09:19:36;103228.03;;;-2.79;100.00
58243;BME280;50118;53.232;8.252;2024-01-11T09:22:05;103226.31;;;-2.73;100.00
58243;BME280;50118;53.232;8.252;2024-01-11T09:24:30;103235.88;;;-2.66;100.00
58243;BME280;50118;53.232;8.252;2024-01-11T09:26:56;103238.50;;;-2.56;100.00
58243;BME280;50118;53.232;8.252;2024-01-11T09:29:21;103239.34;;;-2.76;100.00
58243;BME280;50118;53.232;8.252;2024-01-11T09:31:48;103246.34;;;-2.69;100.00
58243;BME280;50118;53.232;8.252;2024-01-11T09:34:13;103239.38;;;-2.54;100.00
58243;BME280;50118;53.232;8.252;2024-01-11T09:36:38;103239.41;;;-2.47;100.00
58243;BME280;50118;53.232;8.252;2024-01-11T09:39:04;103239.38;;;-2.42;100.00
58243;BME280;50118;53.232;8.252;2024-01-11T09:41:31;103242.00;;;-2.48;100.00
58243;BME280;50118;53.232;8.252;2024-01-11T09:44:00;103246.34;;;-2.44;100.00
58243;BME280;50118;53.232;8.252;2024-01-11T09:46:27;103238.53;;;-2.39;100.00
58243;BME280;50118;53.232;8.252;2024-01-11T09:48:53;103238.50;;;-2.41;100.00
58243;BME280;50118;53.232;8.252;2024-01-11T09:51:20;103221.09;;;-2.25;100.00
58243;BME280;50118;53.232;8.252;2024-01-11T09:53:47;103234.16;;;-2.20;100.00
58243;BME280;50118;53.232;8.252;2024-01-11T09:56:14;103234.16;;;-2.13;100.00
58243;BME280;50118;53.232;8.252;2024-01-11T09:58:47;103221.94;;;-2.00;100.00
58243;BME280;50118;53.232;8.252;2024-01-11T10:01:15;103227.16;;;-1.91;100.00
58243;BME280;50118;53.232;8.252;2024-01-11T10:03:42;103216.69;;;-1.91;100.00
58243;BME280;50118;53.232;8.252;2024-01-11T10:06:08;103214.06;;;-1.88;100.00
58243;BME280;50118;53.232;8.252;2024-01-11T10:08:35;103214.94;;;-1.92;100.00
58243;BME280;50118;53.232;8.252;2024-01-11T10:11:01;103227.97;;;-1.84;100.00
58243;BME280;50118;53.232;8.252;2024-01-11T10:13:29;103211.44;;;-1.89;100.00
58243;BME280;50118;53.232;8.252;2024-01-11T10:16:07;103203.53;;;-1.72;100.00
58243;BME280;50118;53.232;8.252;2024-01-11T10:18:35;103202.72;;;-1.80;100.00
58243;BME280;50118;53.232;8.252;2024-01-11T10:21:01;103199.25;;;-1.89;100.00
58243;BME280;50118;53.232;8.252;2024-01-11T10:23:26;103190.53;;;-1.81;100.00
58243;BME280;50118;53.232;8.252;2024-01-11T10:25:57;103195.72;;;-1.72;100.00
58243;BME280;50118;53.232;8.252;2024-01-11T10:28:25;103184.38;;;-1.63;100.00
58243;BME280;50118;53.232;8.252;2024-01-11T10:30:52;103195.63;;;-1.54;100.00
58243;BME280;50118;53.232;8.252;2024-01-11T10:33:23;103194.78;;;-1.57;100.00
58243;BME280;50118;53.232;8.252;2024-01-11T10:35:49;103193.84;;;-1.44;100.00
58243;BME280;50118;53.232;8.252;2024-01-11T10:38:15;103202.63;;;-1.53;100.00
58243;BME280;50118;53.232;8.252;2024-01-11T10:40:42;103202.59;;;-1.48;100.00
58243;BME280;50118;53.232;8.252;2024-01-11T10:43:11;103195.63;;;-1.51;100.00
58243;BME280;50118;53.232;8.252;2024-01-11T10:45:37;103198.25;;;-1.51;100.00
58243;BME280;50118;53.232;8.252;2024-01-11T10:48:15;103188.63;;;-1.42;100.00
58243;BME280;50118;53.232;8.252;2024-01-11T10:50:45;103192.94;;;-1.34;100.00
58243;BME280;50118;53.232;8.252;2024-01-11T10:53:43;103181.53;;;-1.25;100.00
58243;BME280;50118;53.232;8.252;2024-01-11T10:56:11;103174.44;;;-1.07;100.00
58243;BME280;50118;53.232;8.252;2024-01-11T10:58:40;103170.13;;;-1.08;100.00
58243;BME280;50118;53.232;8.252;2024-01-11T11:01:06;103168.31;;;-0.99;100.00
58243;BME280;50118;53.232;8.252;2024-01-11T11:03:33;103172.63;;;-0.91;100.00
58243;BME280;50118;53.232;8.252;2024-01-11T11:06:00;103161.28;;;-0.93;100.00
58243;BME280;50118;53.232;8.252;2024-01-11T11:08:26;103162.25;;;-1.05;100.00
58243;BME280;50118;53.232;8.252;2024-01-11T11:10:59;103154.31;;;-0.91;100.00
58243;BME280;50118;53.232;8.252;2024-01-11T11:13:25;103151.75;;;-1.02;100.00
58243;BME280;50118;53.232;8.252;2024-01-11T11:15:52;103151.66;;;-0.87;100.00
58243;BME280;50118;53.232;8.252;2024-01-11T11:18:19;103148.16;;;-0.89;100.00
58243;BME280;50118;53.232;8.252;2024-01-11T11:20:46;103148.94;;;-0.78;100.00
58243;BME280;50118;53.232;8.252;2024-01-11T11:23:15;103156.81;;;-0.81;100.00
58243;BME280;50118;53.232;8.252;2024-01-11T11:25:42;103150.63;;;-0.70;100.00
58243;BME280;50118;53.232;8.252;2024-01-11T11:28:08;103162.00;;;-0.73;100.00
58243;BME280;50118;53.232;8.252;2024-01-11T11:30:43;103160.25;;;-0.76;100.00
58243;BME280;50118;53.232;8.252;2024-01-11T11:33:09;103165.47;;;-0.72;100.00
58243;BME280;50118;53.232;8.252;2024-01-11T11:35:35;103161.13;;;-0.73;100.00
58243;BME280;50118;53.232;8.252;2024-01-11T11:38:01;103162.91;;;-0.80;100.00
58243;BME280;50118;53.232;8.252;2024-01-11T11:40:38;103164.66;;;-0.78;100.00
58243;BME280;50118;53.232;8.252;2024-01-11T11:43:08;103158.63;;;-0.89;100.00
58243;BME280;50118;53.232;8.252;2024-01-11T11:45:34;103157.72;;;-0.83;100.00
58243;BME280;50118;53.232;8.252;2024-01-11T11:48:01;103149.00;;;-0.85;100.00
58243;BME280;50118;53.232;8.252;2024-01-11T11:50:29;103158.59;;;-0.83;100.00
58243;BME280;50118;53.232;8.252;2024-01-11T11:52:56;103155.06;;;-0.80;100.00
58243;BME280;50118;53.232;8.252;2024-01-11T11:55:23;103158.44;;;-0.66;100.00
58243;BME280;50118;53.232;8.252;2024-01-11T11:57:50;103156.75;;;-0.71;100.00
58243;BME280;50118;53.232;8.252;2024-01-11T12:00:16;103152.41;;;-0.74;100.00
58243;BME280;50118;53.232;8.252;2024-01-11T12:02:41;103167.13;;;-0.62;100.00
58243;BME280;50118;53.232;8.252;2024-01-11T12:05:07;103154.97;;;-0.66;100.00
58243;BME280;50118;53.232;8.252;2024-01-11T12:07:33;103152.31;;;-0.63;100.00
58243;BME280;50118;53.232;8.252;2024-01-11T12:09:59;103161.91;;;-0.62;100.00
58243;BME280;50118;53.232;8.252;2024-01-11T12:12:24;103151.44;;;-0.62;100.00
58243;BME280;50118;53.232;8.252;2024-01-11T12:14:50;103154.91;;;-0.60;100.00
58243;BME280;50118;53.232;8.252;2024-01-11T12:17:16;103144.44;;;-0.63;100.00
58243;BME280;50118;53.232;8.252;2024-01-11T12:19:42;103130.47;;;-0.62;100.00
58243;BME280;50118;53.232;8.252;2024-01-11T12:22:08;103129.63;;;-0.64;100.00
58243;BME280;50118;53.232;8.252;2024-01-11T12:24:34;103129.56;;;-0.58;100.00
58243;BME280;50118;53.232;8.252;2024-01-11T12:27:00;103125.22;;;-0.59;100.00
58243;BME280;50118;53.232;8.252;2024-01-11T12:29:29;103124.28;;;-0.53;100.00
58243;BME280;50118;53.232;8.252;2024-01-11T12:31:56;103119.00;;;-0.46;100.00
58243;BME280;50118;53.232;8.252;2024-01-11T12:34:22;103125.97;;;-0.48;100.00
58243;BME280;50118;53.232;8.252;2024-01-11T12:36:48;103128.56;;;-0.45;100.00
58243;BME280;50118;53.232;8.252;2024-01-11T12:39:16;103130.34;;;-0.47;100.00